Time;durP1;ratioP1;P1;durP2;ratioP2;P2;SDS_P1;SDS_P2;PMS_P1;PMS_P2;Temp;Humidity;BMP_temperature;BMP_pressure;BME280_temperature;BME280_humidity;BME280_pressure;Samples;Min_cycle;Max_cycle;Signal;HPM_P1;HPM_P2
2021/03/13 00:00:48;;;;;;;7.27;2.10;;;8.40;84.40;;;;;;5094706;28;20434;-72
2021/03/13 00:03:15;;;;;;;6.33;2.40;;;8.50;84.40;;;;;;5094658;28;20443;-72
2021/03/13 00:05:42;;;;;;;9.77;2.03;;;8.60;84.20;;;;;;5094383;28;20451;-72
2021/03/13 00:08:09;;;;;;;9.03;1.87;;;8.60;84.20;;;;;;5094512;28;20470;-72
2021/03/13 00:10:36;;;;;;;6.60;1.80;;;8.60;84.20;;;;;;5094510;28;20508;-72
2021/03/13 00:13:04;;;;;;;11.13;2.30;;;8.70;84.50;;;;;;5094575;28;20512;-72
2021/03/13 00:15:31;;;;;;;8.93;2.50;;;8.70;84.30;;;;;;5094499;28;20478;-72
2021/03/13 00:18:00;;;;;;;5.73;2.00;;;8.70;85.80;;;;;;5094225;28;20481;-72
2021/03/13 00:20:29;;;;;;;3.40;1.80;;;8.70;87.80;;;;;;5094329;28;20807;-71
2021/03/13 00:22:56;;;;;;;8.20;1.87;;;8.60;89.50;;;;;;5094224;28;20934;-72
2021/03/13 00:25:24;;;;;;;3.43;1.70;;;8.40;89.70;;;;;;5094242;28;20458;-72
2021/03/13 00:27:51;;;;;;;6.03;2.33;;;8.20;90.80;;;;;;5094111;28;20439;-72
2021/03/13 00:30:20;;;;;;;6.57;2.27;;;8.10;91.20;;;;;;5094188;28;20439;-72
2021/03/13 00:32:49;;;;;;;6.83;2.47;;;8.10;91.70;;;;;;5094167;28;20432;-72
2021/03/13 00:35:16;;;;;;;5.03;2.10;;;8.10;92.10;;;;;;5094030;28;20444;-72
2021/03/13 00:37:43;;;;;;;6.33;1.80;;;8.10;92.30;;;;;;5093825;28;20472;-72
2021/03/13 00:40:11;;;;;;;8.00;3.03;;;8.10;92.40;;;;;;5093678;28;20820;-72
2021/03/13 00:42:38;;;;;;;6.43;2.67;;;8.10;92.30;;;;;;5093980;28;20492;-72
2021/03/13 00:45:07;;;;;;;7.70;2.47;;;8.10;92.40;;;;;;5093949;28;20436;-72
2021/03/13 00:47:33;;;;;;;4.77;2.43;;;8.20;92.50;;;;;;5093595;28;20964;-72
2021/03/13 00:50:00;;;;;;;4.00;2.00;;;8.20;92.40;;;;;;5093832;28;20471;-72
2021/03/13 00:52:27;;;;;;;8.33;2.50;;;8.20;92.20;;;;;;5093131;28;20957;-72
2021/03/13 00:54:53;;;;;;;3.80;2.13;;;8.20;92.30;;;;;;5093778;28;20474;-72
2021/03/13 00:57:19;;;;;;;6.60;2.13;;;8.20;92.10;;;;;;5094005;28;20460;-72
2021/03/13 00:59:45;;;;;;;12.97;2.63;;;8.20;92.30;;;;;;5093650;28;20468;-72
2021/03/13 01:02:12;;;;;;;8.47;4.50;;;8.20;92.10;;;;;;5093409;28;20446;-72
2021/03/13 01:04:38;;;;;;;7.50;2.53;;;8.30;92.30;;;;;;5093781;28;20458;-72
2021/03/13 01:07:05;;;;;;;6.70;2.80;;;8.20;92.20;;;;;;5093294;28;20443;-72
2021/03/13 01:09:31;;;;;;;6.10;2.90;;;8.20;92.30;;;;;;5093578;28;20455;-72
2021/03/13 01:11:57;;;;;;;13.13;3.30;;;8.20;92.40;;;;;;5093504;28;20796;-72
2021/03/13 01:14:24;;;;;;;12.87;3.20;;;8.30;92.60;;;;;;5093249;28;20849;-71
2021/03/13 01:16:50;;;;;;;4.83;3.37;;;8.20;92.60;;;;;;5093216;28;20941;-72
2021/03/13 01:19:17;;;;;;;10.60;4.23;;;8.20;92.80;;;;;;5093481;28;20464;-72
2021/03/13 01:21:44;;;;;;;5.83;3.30;;;8.20;92.70;;;;;;5093533;28;20474;-72
2021/03/13 01:24:11;;;;;;;4.93;3.33;;;8.20;92.70;;;;;;5093164;28;20440;-72
2021/03/13 01:26:38;;;;;;;7.00;2.90;;;8.20;92.50;;;;;;5093437;28;20443;-72
2021/03/13 01:29:04;;;;;;;7.00;3.13;;;8.20;92.50;;;;;;5094269;28;20460;-72
2021/03/13 01:31:31;;;;;;;5.60;2.90;;;8.20;92.50;;;;;;5093453;28;20451;-72
2021/03/13 01:33:57;;;;;;;6.87;3.70;;;8.30;92.50;;;;;;5093369;28;20841;-72
2021/03/13 01:36:24;;;;;;;4.97;2.60;;;8.20;92.50;;;;;;5093362;28;20567;-72
2021/03/13 01:38:50;;;;;;;3.37;2.43;;;8.20;92.50;;;;;;5093222;28;20487;-72
2021/03/13 01:41:17;;;;;;;5.13;3.20;;;8.20;92.50;;;;;;5093345;28;20443;-72
2021/03/13 01:43:43;;;;;;;4.80;2.93;;;8.20;92.60;;;;;;5093203;28;20823;-72
2021/03/13 01:46:09;;;;;;;3.43;2.37;;;8.20;92.40;;;;;;5093267;28;20453;-72
2021/03/13 01:48:39;;;;;;;10.60;2.90;;;8.20;92.60;;;;;;5093204;28;20456;-72
2021/03/13 01:51:06;;;;;;;5.73;3.10;;;8.20;92.70;;;;;;5093243;28;20447;-72
2021/03/13 01:53:32;;;;;;;3.97;2.40;;;8.20;92.80;;;;;;5093233;28;20438;-72
2021/03/13 01:55:59;;;;;;;5.03;2.80;;;8.10;93.00;;;;;;5092880;28;20534;-72
2021/03/13 01:58:26;;;;;;;4.10;2.60;;;8.00;93.30;;;;;;5093005;28;21040;-72
2021/03/13 02:00:52;;;;;;;6.40;3.30;;;7.90;93.70;;;;;;5093159;28;20894;-72
2021/03/13 02:03:19;;;;;;;3.20;2.90;;;7.90;93.70;;;;;;5094552;28;20439;-72
2021/03/13 02:05:47;;;;;;;4.40;3.00;;;7.90;93.90;;;;;;5096759;28;20466;-72
2021/03/13 02:08:22;;;;;;;3.20;2.30;;;7.80;93.90;;;;;;5097063;28;20529;-72
2021/03/13 02:10:57;;;;;;;2.70;2.50;;;7.90;94.00;;;;;;5096911;28;20455;-72
2021/03/13 02:13:28;;;;;;;3.10;2.30;;;7.90;94.00;;;;;;5096535;28;20891;-72
2021/03/13 02:16:06;;;;;;;3.10;2.90;;;7.90;94.00;;;;;;5096466;28;20804;-72
2021/03/13 02:18:37;;;;;;;3.43;2.60;;;7.90;94.00;;;;;;5096291;28;21012;-72
2021/03/13 02:21:09;;;;;;;4.90;2.60;;;7.90;94.00;;;;;;5096702;28;20440;-72
2021/03/13 02:23:48;;;;;;;4.97;2.47;;;7.90;94.10;;;;;;5096651;28;20477;-72
2021/03/13 02:26:44;;;;;;;2.73;2.53;;;7.90;94.20;;;;;;5096285;28;20428;-72
2021/03/13 02:29:33;;;;;;;3.67;2.20;;;7.80;94.10;;;;;;5083443;28;20809;-72
2021/03/13 02:32:04;;;;;;;2.77;1.83;;;7.80;94.20;;;;;;5096476;28;20432;-72
2021/03/13 02:34:32;;;;;;;2.37;2.00;;;7.80;94.30;;;;;;5096420;28;20424;-72
2021/03/13 02:37:02;;;;;;;1.70;1.60;;;7.80;94.60;;;;;;5095955;28;20950;-72
2021/03/13 02:39:31;;;;;;;3.20;1.70;;;7.80;94.40;;;;;;5096021;28;20467;-72
2021/03/13 02:42:01;;;;;;;1.90;1.60;;;7.80;94.40;;;;;;5096308;28;20444;-72
2021/03/13 02:44:31;;;;;;;1.93;1.30;;;7.80;94.20;;;;;;5096264;28;20439;-72
2021/03/13 02:46:57;;;;;;;2.20;1.30;;;7.80;94.30;;;;;;5096175;28;20449;-72
2021/03/13 02:49:26;;;;;;;2.70;1.60;;;7.80;94.30;;;;;;5096092;28;20468;-72
2021/03/13 02:51:54;;;;;;;5.40;1.57;;;7.70;94.30;;;;;;5096082;28;20471;-72
2021/03/13 02:54:22;;;;;;;2.53;1.70;;;7.70;94.40;;;;;;5096028;28;20447;-72
2021/03/13 02:56:49;;;;;;;2.97;1.37;;;7.70;94.50;;;;;;5096009;28;20495;-72
2021/03/13 02:59:18;;;;;;;4.43;1.83;;;7.70;94.40;;;;;;5095748;28;20483;-72
2021/03/13 03:01:47;;;;;;;2.63;1.30;;;7.70;94.40;;;;;;5095843;28;20451;-72
2021/03/13 03:04:15;;;;;;;1.40;1.30;;;7.80;94.50;;;;;;5095785;28;20872;-72
2021/03/13 03:06:44;;;;;;;3.10;1.50;;;7.70;94.60;;;;;;5095668;28;20456;-72
2021/03/13 03:09:11;;;;;;;3.17;1.27;;;7.80;94.80;;;;;;5095674;28;20460;-72
2021/03/13 03:11:40;;;;;;;3.40;1.30;;;7.70;94.70;;;;;;5095880;28;20439;-72
2021/03/13 03:14:06;;;;;;;1.40;1.07;;;7.80;94.90;;;;;;5095318;28;20847;-72
2021/03/13 03:16:37;;;;;;;3.93;1.40;;;7.80;94.70;;;;;;5095608;28;20443;-72
2021/03/13 03:19:05;;;;;;;3.20;1.20;;;7.90;94.70;;;;;;5095702;28;20483;-72
2021/03/13 03:21:32;;;;;;;2.20;1.00;;;7.90;94.70;;;;;;5095226;28;20432;-72
2021/03/13 03:23:58;;;;;;;1.40;0.90;;;7.90;94.80;;;;;;5095443;28;20444;-72
2021/03/13 03:26:25;;;;;;;2.17;1.17;;;7.90;94.70;;;;;;5095407;28;20447;-72
2021/03/13 03:28:51;;;;;;;1.50;0.73;;;7.90;94.50;;;;;;5094987;28;20977;-72
2021/03/13 03:31:17;;;;;;;5.50;1.47;;;7.90;94.40;;;;;;5095306;28;20448;-72
2021/03/13 03:33:44;;;;;;;1.10;0.80;;;7.90;94.50;;;;;;5096097;28;20811;-72
2021/03/13 03:36:11;;;;;;;1.50;0.80;;;8.00;94.40;;;;;;5095171;28;20443;-72
2021/03/13 03:38:38;;;;;;;4.57;1.30;;;8.00;94.20;;;;;;5095031;28;20529;-72
2021/03/13 03:41:04;;;;;;;1.70;1.30;;;8.00;94.20;;;;;;5094819;28;20910;-72
2021/03/13 03:43:36;;;;;;;1.80;1.37;;;8.00;94.10;;;;;;5095055;28;20443;-72
2021/03/13 03:46:04;;;;;;;3.90;0.80;;;8.00;94.60;;;;;;5094748;28;20929;-72
2021/03/13 03:48:33;;;;;;;2.67;1.10;;;8.00;94.20;;;;;;5095249;28;20456;-72
2021/03/13 03:51:00;;;;;;;4.90;0.97;;;8.00;94.30;;;;;;5094906;28;20443;-72
2021/03/13 03:53:34;;;;;;;1.10;0.57;;;8.00;94.00;;;;;;5094892;28;20448;-72
2021/03/13 03:56:02;;;;;;;5.07;1.47;;;8.10;94.00;;;;;;5094922;28;20540;-72
2021/03/13 03:58:33;;;;;;;0.83;0.70;;;8.10;94.10;;;;;;5094385;28;20991;-72
2021/03/13 04:01:01;;;;;;;2.20;0.80;;;8.20;93.80;;;;;;5094804;28;20428;-72
2021/03/13 04:03:29;;;;;;;2.20;0.93;;;8.20;93.90;;;;;;5094406;28;20946;-72
2021/03/13 04:05:56;;;;;;;2.40;1.00;;;8.20;93.90;;;;;;5094496;28;20455;-72
2021/03/13 04:08:23;;;;;;;3.80;1.00;;;8.30;94.40;;;;;;5094246;28;20513;-72
2021/03/13 04:10:51;;;;;;;3.70;0.80;;;8.30;94.00;;;;;;5094581;28;20448;-72
2021/03/13 04:13:20;;;;;;;3.03;0.87;;;8.30;94.00;;;;;;5094495;28;20444;-72
2021/03/13 04:15:48;;;;;;;6.30;1.47;;;8.30;94.20;;;;;;5094442;28;20456;-72
2021/03/13 04:18:16;;;;;;;5.37;1.50;;;8.30;94.40;;;;;;5094260;28;20483;-72
2021/03/13 04:20:46;;;;;;;5.00;1.27;;;8.40;94.50;;;;;;5094365;28;20447;-72
2021/03/13 04:23:13;;;;;;;4.43;0.97;;;8.30;94.50;;;;;;5094048;28;20963;-72
2021/03/13 04:25:43;;;;;;;1.43;1.00;;;8.40;94.60;;;;;;5093583;28;20452;-72
2021/03/13 04:28:10;;;;;;;4.00;0.77;;;8.30;94.60;;;;;;5094089;28;20468;-72
2021/03/13 04:30:37;;;;;;;2.97;1.10;;;8.30;94.60;;;;;;5094128;28;20444;-72
2021/03/13 04:33:04;;;;;;;1.60;1.17;;;8.30;94.70;;;;;;5094414;28;20428;-72
2021/03/13 04:35:32;;;;;;;5.93;1.23;;;8.30;94.50;;;;;;5094194;28;20440;-72
2021/03/13 04:37:59;;;;;;;3.37;1.40;;;8.30;94.20;;;;;;5093972;28;20483;-72
2021/03/13 04:40:25;;;;;;;4.03;1.30;;;8.30;94.30;;;;;;5093748;28;20934;-72
2021/03/13 04:42:52;;;;;;;2.63;1.10;;;8.30;94.40;;;;;;5094013;28;20447;-72
2021/03/13 04:45:19;;;;;;;5.60;1.60;;;8.30;94.40;;;;;;5094020;28;20481;-72
2021/03/13 04:47:48;;;;;;;3.43;1.10;;;8.30;94.40;;;;;;5093801;28;20439;-72
2021/03/13 04:50:16;;;;;;;2.70;1.13;;;8.30;94.40;;;;;;5093932;28;20498;-72
2021/03/13 04:52:42;;;;;;;3.40;0.87;;;8.30;94.40;;;;;;5093905;28;20470;-72
2021/03/13 04:55:09;;;;;;;1.37;0.60;;;8.30;94.30;;;;;;5093833;28;20741;-72
2021/03/13 04:57:36;;;;;;;2.50;0.90;;;8.40;94.10;;;;;;5093724;28;20471;-72
2021/03/13 05:00:03;;;;;;;1.17;1.03;;;8.40;94.20;;;;;;5093729;28;20466;-72
2021/03/13 05:02:30;;;;;;;0.80;0.73;;;8.40;94.10;;;;;;5093749;28;20439;-72
2021/03/13 05:04:56;;;;;;;0.77;0.60;;;8.40;93.90;;;;;;5093565;28;20451;-72
2021/03/13 05:07:22;;;;;;;0.70;0.47;;;8.50;93.70;;;;;;5093692;28;20423;-72
2021/03/13 05:09:48;;;;;;;0.97;0.70;;;8.50;93.60;;;;;;5093570;28;20486;-72
2021/03/13 05:12:15;;;;;;;1.53;1.10;;;8.50;93.60;;;;;;5093615;28;20456;-72
2021/03/13 05:14:41;;;;;;;3.50;0.83;;;8.50;93.60;;;;;;5093656;28;20424;-72
2021/03/13 05:17:07;;;;;;;1.63;0.60;;;8.50;93.70;;;;;;5093170;28;20443;-72
2021/03/13 05:19:34;;;;;;;0.77;0.70;;;8.50;93.60;;;;;;5093513;28;20510;-72
2021/03/13 05:22:00;;;;;;;1.93;0.70;;;8.50;93.40;;;;;;5093232;28;20949;-72
2021/03/13 05:24:26;;;;;;;0.70;0.47;;;8.50;93.30;;;;;;5093524;28;20521;-72
2021/03/13 05:26:53;;;;;;;4.13;0.80;;;8.60;93.40;;;;;;5093512;28;20439;-72
2021/03/13 05:29:19;;;;;;;1.23;0.70;;;8.60;93.30;;;;;;5093114;28;20459;-72
2021/03/13 05:31:45;;;;;;;3.07;0.90;;;8.60;93.20;;;;;;5093457;28;20481;-72
2021/03/13 05:34:11;;;;;;;1.77;0.70;;;8.60;93.20;;;;;;5093138;28;20435;-72
2021/03/13 05:36:38;;;;;;;1.80;0.50;;;8.60;93.10;;;;;;5093710;28;20440;-72
2021/03/13 05:39:05;;;;;;;2.17;0.90;;;8.70;93.00;;;;;;5097461;28;20483;-72
2021/03/13 05:41:33;;;;;;;3.37;0.67;;;8.70;92.80;;;;;;5097468;28;20497;-72
2021/03/13 05:44:00;;;;;;;1.60;0.90;;;8.80;93.00;;;;;;5097500;28;20443;-72
2021/03/13 05:46:34;;;;;;;5.50;0.90;;;8.70;92.80;;;;;;5097403;28;20428;-72
2021/03/13 05:49:02;;;;;;;2.73;0.60;;;8.80;92.90;;;;;;5097340;28;20503;-72
2021/03/13 05:51:31;;;;;;;4.33;1.10;;;8.80;92.70;;;;;;5097326;28;20443;-72
2021/03/13 05:53:58;;;;;;;3.07;0.77;;;8.80;92.70;;;;;;5097248;28;20451;-72
2021/03/13 05:56:24;;;;;;;3.23;0.80;;;8.80;92.70;;;;;;5097174;28;20447;-72
2021/03/13 05:58:50;;;;;;;3.53;0.80;;;8.80;92.50;;;;;;5097219;28;20493;-72
2021/03/13 06:01:17;;;;;;;7.57;0.90;;;8.80;92.40;;;;;;5097078;28;20448;-72
2021/03/13 06:03:43;;;;;;;5.77;0.93;;;8.80;92.60;;;;;;5096989;28;20444;-72
2021/03/13 06:06:11;;;;;;;1.50;0.60;;;8.80;92.90;;;;;;5096745;28;20938;-72
2021/03/13 06:08:37;;;;;;;6.87;0.60;;;8.90;92.60;;;;;;5096537;28;20992;-72
2021/03/13 06:11:04;;;;;;;2.50;0.90;;;8.90;92.90;;;;;;5096957;28;20448;-72
2021/03/13 06:13:33;;;;;;;0.60;0.43;;;8.80;92.90;;;;;;5097399;28;20450;-72
2021/03/13 06:16:01;;;;;;;1.60;0.60;;;8.80;92.90;;;;;;5097081;28;20440;-72
2021/03/13 06:18:51;;;;;;;1.23;0.60;;;8.80;92.90;;;;;;5096630;28;20479;-72
2021/03/13 06:21:21;;;;;;;5.33;0.60;;;8.90;93.20;;;;;;5096391;28;20925;-72
2021/03/13 06:23:47;;;;;;;1.50;0.73;;;8.80;93.60;;;;;;5096603;28;20995;-72
2021/03/13 06:26:14;;;;;;;1.37;0.70;;;8.80;93.40;;;;;;5096639;28;20447;-72
2021/03/13 06:28:41;;;;;;;2.77;0.87;;;8.80;93.30;;;;;;5096134;28;20494;-72
2021/03/13 06:31:12;;;;;;;4.87;0.90;;;8.80;93.20;;;;;;5096483;28;20443;-72
2021/03/13 06:33:38;;;;;;;1.53;0.90;;;8.80;93.30;;;;;;5096475;28;20428;-72
2021/03/13 06:36:06;;;;;;;3.83;0.90;;;8.80;93.40;;;;;;5096361;28;20487;-72
2021/03/13 06:38:34;;;;;;;3.53;1.10;;;8.80;93.40;;;;;;5096339;28;20486;-72
2021/03/13 06:41:11;;;;;;;3.70;1.30;;;8.80;93.40;;;;;;5095826;28;20945;-72
2021/03/13 06:43:39;;;;;;;1.50;0.90;;;8.90;93.40;;;;;;5096199;28;20427;-72
2021/03/13 06:46:07;;;;;;;2.43;0.87;;;8.90;93.40;;;;;;5095885;28;20810;-72
2021/03/13 06:48:39;;;;;;;1.17;0.90;;;8.90;93.20;;;;;;5095732;28;20496;-72
2021/03/13 06:51:22;;;;;;;1.70;0.70;;;9.00;93.10;;;;;;5096248;28;20433;-72
2021/03/13 06:54:12;;;;;;;3.07;0.60;;;9.00;93.10;;;;;;5096162;28;20428;-72
2021/03/13 06:56:41;;;;;;;2.87;0.83;;;9.00;92.50;;;;;;5096056;28;20436;-72
2021/03/13 06:59:23;;;;;;;1.50;0.60;;;9.00;92.70;;;;;;5095523;28;20997;-72
2021/03/13 07:02:00;;;;;;;1.00;0.50;;;9.10;93.20;;;;;;5095993;28;20438;-72
2021/03/13 07:04:31;;;;;;;2.70;1.00;;;9.10;92.70;;;;;;5095860;28;20447;-72
2021/03/13 07:06:57;;;;;;;1.80;0.60;;;9.20;92.40;;;;;;5095795;28;20521;-72
2021/03/13 07:09:45;;;;;;;4.10;0.77;;;9.20;92.70;;;;;;5095425;28;21010;-72
2021/03/13 07:12:24;;;;;;;0.83;0.40;;;9.20;92.60;;;;;;5095440;28;20910;-71
2021/03/13 07:14:52;;;;;;;1.13;0.50;;;9.00;92.80;;;;;;5096244;28;20424;-71
2021/03/13 07:17:19;;;;;;;2.30;0.50;;;8.80;93.40;;;;;;5095632;28;20450;-71
2021/03/13 07:19:45;;;;;;;3.70;0.57;;;8.70;94.20;;;;;;5095519;28;20471;-71
2021/03/13 07:22:13;;;;;;;1.67;0.80;;;8.60;95.30;;;;;;5095202;28;20817;-72
2021/03/13 07:24:41;;;;;;;0.67;0.57;;;8.30;93.70;;;;;;5095497;28;21019;-71
2021/03/13 07:27:10;;;;;;;2.10;0.60;;;7.90;92.80;;;;;;5095113;28;20957;-71
2021/03/13 07:29:38;;;;;;;2.87;0.67;;;7.50;92.60;;;;;;5095496;28;20455;-71
2021/03/13 07:32:09;;;;;;;2.93;0.73;;;7.20;92.40;;;;;;5095289;28;20481;-71
2021/03/13 07:34:37;;;;;;;2.07;0.70;;;7.00;92.30;;;;;;5095277;28;20493;-71
2021/03/13 07:37:05;;;;;;;1.13;0.67;;;7.00;92.00;;;;;;5095916;28;20472;-72
2021/03/13 07:39:37;;;;;;;0.70;0.60;;;7.00;92.10;;;;;;5095291;28;20483;-72
2021/03/13 07:42:11;;;;;;;2.27;0.63;;;7.00;91.40;;;;;;5095199;28;20428;-72
2021/03/13 07:44:38;;;;;;;1.53;0.80;;;7.10;90.30;;;;;;5095065;28;20424;-72
2021/03/13 07:47:07;;;;;;;2.23;0.40;;;7.30;87.80;;;;;;5094690;28;20953;-72
2021/03/13 07:49:34;;;;;;;0.70;0.40;;;7.30;87.80;;;;;;5095273;28;20467;-72
2021/03/13 07:52:03;;;;;;;2.50;0.50;;;7.50;87.20;;;;;;5094987;28;20501;-72
2021/03/13 07:54:31;;;;;;;0.90;0.50;;;7.60;85.30;;;;;;5094873;28;20451;-72
2021/03/13 07:57:00;;;;;;;1.67;0.57;;;7.60;85.60;;;;;;5095668;28;20835;-72
2021/03/13 07:59:46;;;;;;;4.77;0.50;;;7.70;85.70;;;;;;5095534;28;20490;-72
2021/03/13 08:02:36;;;;;;;0.90;0.60;;;7.70;86.40;;;;;;5093976;28;20435;-72
2021/03/13 08:05:03;;;;;;;2.80;0.80;;;7.70;87.20;;;;;;5094561;28;20440;-72
2021/03/13 08:07:50;;;;;;;1.87;0.67;;;7.70;88.30;;;;;;5094666;28;20435;-72
2021/03/13 08:10:45;;;;;;;2.00;0.60;;;7.70;88.20;;;;;;5094569;28;20416;-72
2021/03/13 08:13:12;;;;;;;3.30;0.97;;;7.70;88.00;;;;;;5094536;28;20467;-72
2021/03/13 08:15:47;;;;;;;2.10;0.70;;;7.70;87.90;;;;;;5094737;28;20435;-72
2021/03/13 08:18:39;;;;;;;1.67;0.70;;;7.90;88.90;;;;;;5094462;28;20491;-72
2021/03/13 08:21:43;;;;;;;3.33;0.70;;;7.90;88.40;;;;;;5094395;28;20432;-72
2021/03/13 08:24:10;;;;;;;2.10;0.70;;;7.90;88.80;;;;;;5094043;28;20960;-72
2021/03/13 08:27:08;;;;;;;2.27;0.77;;;8.00;88.10;;;;;;5094118;28;20925;-72
2021/03/13 08:30:15;;;;;;;2.17;0.80;;;8.00;87.20;;;;;;5094029;28;20977;-72
2021/03/13 08:33:03;;;;;;;2.43;0.70;;;8.10;87.70;;;;;;5064174;28;21059;-72
2021/03/13 08:35:48;;;;;;;0.70;0.40;;;8.10;87.40;;;;;;5094242;28;20428;-72
2021/03/13 08:38:17;;;;;;;2.40;0.57;;;8.10;87.60;;;;;;5094038;28;20506;-72
2021/03/13 08:40:47;;;;;;;1.43;0.70;;;8.20;86.40;;;;;;5094057;28;20815;-72
2021/03/13 08:43:33;;;;;;;3.23;0.63;;;8.20;87.40;;;;;;5094148;28;20439;-72
2021/03/13 08:45:59;;;;;;;2.43;1.00;;;8.20;87.30;;;;;;5094047;28;20496;-72
2021/03/13 08:48:55;;;;;;;3.03;0.80;;;8.20;87.10;;;;;;5093986;28;20467;-72
2021/03/13 08:51:22;;;;;;;0.80;0.50;;;8.30;87.00;;;;;;5093960;28;20463;-72
2021/03/13 08:53:49;;;;;;;0.80;0.60;;;8.20;86.30;;;;;;5093903;28;20455;-72
2021/03/13 08:56:38;;;;;;;1.63;0.97;;;8.20;86.30;;;;;;5093530;28;20933;-72
2021/03/13 08:59:13;;;;;;;3.50;0.67;;;8.30;86.90;;;;;;5093708;28;20611;-72
2021/03/13 09:01:40;;;;;;;1.87;0.80;;;8.40;87.10;;;;;;5093785;28;20447;-72
2021/03/13 09:04:06;;;;;;;4.97;1.03;;;8.40;87.00;;;;;;5093821;28;20447;-72
2021/03/13 09:06:33;;;;;;;5.20;1.00;;;8.40;87.10;;;;;;5093576;28;20899;-72
2021/03/13 09:09:15;;;;;;;3.43;1.03;;;8.50;87.50;;;;;;5093324;28;20452;-72
2021/03/13 09:11:42;;;;;;;5.53;1.13;;;8.50;86.60;;;;;;5093303;28;20451;-72
2021/03/13 09:14:09;;;;;;;3.10;1.43;;;8.50;85.30;;;;;;5093670;28;20447;-72
2021/03/13 09:16:37;;;;;;;1.10;0.70;;;8.60;86.10;;;;;;5093277;28;20972;-72
2021/03/13 09:19:05;;;;;;;2.70;1.03;;;8.60;85.40;;;;;;5093867;28;20506;-72
2021/03/13 09:21:47;;;;;;;12.63;1.57;;;8.70;84.90;;;;;;5093636;28;20447;-72
2021/03/13 09:24:16;;;;;;;3.37;0.93;;;8.80;84.60;;;;;;5093179;28;20937;-73
2021/03/13 09:26:42;;;;;;;6.37;1.67;;;8.80;83.90;;;;;;5093184;28;20855;-72
2021/03/13 09:29:08;;;;;;;3.80;1.80;;;8.90;83.50;;;;;;5093492;28;20827;-72
2021/03/13 09:31:35;;;;;;;3.57;1.33;;;8.90;82.70;;;;;;5093494;28;20447;-72
2021/03/13 09:34:15;;;;;;;5.13;1.47;;;9.00;83.30;;;;;;5093388;28;20454;-72
2021/03/13 09:36:42;;;;;;;3.60;1.23;;;9.00;81.70;;;;;;5093350;28;20447;-72
2021/03/13 09:39:09;;;;;;;6.30;1.63;;;9.00;82.20;;;;;;5093300;28;20533;-72
2021/03/13 09:41:35;;;;;;;8.70;1.83;;;9.00;82.20;;;;;;5093052;28;20448;-73
2021/03/13 09:44:01;;;;;;;3.20;0.90;;;9.10;83.10;;;;;;5093333;28;20443;-72
2021/03/13 09:46:30;;;;;;;4.77;1.47;;;9.10;83.10;;;;;;5093342;28;20439;-72
2021/03/13 09:48:56;;;;;;;4.80;0.80;;;9.20;83.20;;;;;;5093238;28;20507;-72
2021/03/13 09:51:28;;;;;;;5.00;1.30;;;9.30;80.90;;;;;;5096595;28;20444;-73
2021/03/13 09:53:54;;;;;;;3.47;1.30;;;9.30;81.30;;;;;;5101457;28;20428;-73
2021/03/13 09:56:31;;;;;;;3.97;1.40;;;9.30;79.10;;;;;;5093217;28;20450;-73
2021/03/13 09:58:58;;;;;;;5.83;1.37;;;9.30;79.50;;;;;;5093121;28;20582;-73
2021/03/13 10:01:25;;;;;;;2.97;1.10;;;9.20;79.00;;;;;;5093153;28;20888;-73
2021/03/13 10:03:51;;;;;;;9.83;2.03;;;9.20;78.30;;;;;;5093379;28;20444;-73
2021/03/13 10:06:18;;;;;;;12.80;2.40;;;9.10;78.40;;;;;;5093158;28;20459;-73
2021/03/13 10:08:45;;;;;;;10.93;1.80;;;9.10;78.20;;;;;;5092997;28;20498;-73
2021/03/13 10:11:11;;;;;;;5.97;1.80;;;9.20;78.00;;;;;;5093134;28;20856;-73
2021/03/13 10:13:38;;;;;;;11.37;2.07;;;9.20;75.60;;;;;;5093078;28;20444;-73
2021/03/13 10:16:05;;;;;;;14.03;1.87;;;9.40;77.10;;;;;;5093082;28;20613;-73
2021/03/13 10:18:38;;;;;;;6.07;1.33;;;9.40;73.90;;;;;;5092874;28;20479;-72
2021/03/13 10:21:06;;;;;;;9.90;1.53;;;9.30;74.70;;;;;;5093078;28;20431;-72
2021/03/13 10:23:35;;;;;;;4.50;1.60;;;9.40;73.70;;;;;;5092986;28;20451;-72
2021/03/13 10:26:05;;;;;;;11.60;1.93;;;9.70;73.70;;;;;;5096669;28;20462;-72
2021/03/13 10:28:34;;;;;;;11.50;4.07;;;9.80;73.10;;;;;;5096504;28;20466;-73
2021/03/13 10:31:08;;;;;;;8.00;1.77;;;9.80;72.70;;;;;;5096518;28;20440;-72
2021/03/13 10:33:36;;;;;;;9.73;2.97;;;9.60;70.30;;;;;;5096471;28;20443;-72
2021/03/13 10:36:03;;;;;;;12.40;2.57;;;9.40;71.40;;;;;;5096142;28;20930;-72
2021/03/13 10:38:39;;;;;;;11.77;2.47;;;9.30;72.50;;;;;;5096267;28;20487;-72
2021/03/13 10:41:07;;;;;;;8.57;2.17;;;9.30;71.80;;;;;;5096443;28;20428;-72
2021/03/13 10:43:37;;;;;;;14.20;1.80;;;9.20;71.90;;;;;;5096315;28;20462;-73
2021/03/13 10:46:13;;;;;;;8.53;2.87;;;9.20;73.10;;;;;;5096250;28;20809;-72
2021/03/13 10:49:00;;;;;;;6.30;1.80;;;9.10;74.50;;;;;;5096136;28;20467;-72
2021/03/13 10:51:29;;;;;;;7.70;1.73;;;9.20;73.40;;;;;;5096146;28;20458;-72
2021/03/13 10:53:56;;;;;;;15.60;2.80;;;9.40;71.40;;;;;;5096105;28;20451;-72
2021/03/13 10:56:23;;;;;;;6.03;2.53;;;9.70;68.70;;;;;;5096080;28;20493;-72
2021/03/13 10:58:50;;;;;;;10.97;1.40;;;9.70;68.60;;;;;;5095861;28;20487;-72
2021/03/13 11:01:19;;;;;;;8.60;1.97;;;9.70;69.00;;;;;;5095885;28;20440;-72
2021/03/13 11:03:46;;;;;;;5.03;1.50;;;9.70;69.30;;;;;;5095838;28;20507;-72
2021/03/13 11:06:14;;;;;;;5.83;1.47;;;9.90;69.60;;;;;;5096515;28;20463;-72
2021/03/13 11:08:40;;;;;;;10.33;1.97;;;9.90;69.70;;;;;;5095402;28;20972;-72
2021/03/13 11:11:06;;;;;;;4.30;1.40;;;10.00;68.80;;;;;;5095742;28;20516;-72
2021/03/13 11:13:32;;;;;;;6.00;1.57;;;10.00;66.80;;;;;;5095718;28;20450;-72
2021/03/13 11:15:59;;;;;;;10.10;2.00;;;10.00;68.30;;;;;;5095659;28;20447;-72
2021/03/13 11:18:26;;;;;;;7.90;1.80;;;10.20;68.10;;;;;;5095096;28;20489;-72
2021/03/13 11:20:53;;;;;;;7.37;2.10;;;10.10;65.70;;;;;;5095534;28;20439;-72
2021/03/13 11:23:20;;;;;;;7.83;2.33;;;10.10;66.30;;;;;;5095463;28;20493;-72
2021/03/13 11:25:47;;;;;;;9.87;2.07;;;10.00;66.10;;;;;;5095383;28;20454;-72
2021/03/13 11:28:13;;;;;;;8.77;2.50;;;9.90;70.00;;;;;;5095271;28;20460;-72
2021/03/13 11:30:39;;;;;;;11.70;3.17;;;10.10;67.40;;;;;;5095233;28;20448;-72
2021/03/13 11:33:07;;;;;;;13.13;2.57;;;10.50;65.90;;;;;;5095141;28;20933;-77
2021/03/13 11:35:34;;;;;;;11.43;2.23;;;11.20;64.30;;;;;;5095757;28;20550;-77
2021/03/13 11:38:00;;;;;;;10.83;2.43;;;11.60;61.00;;;;;;5095667;28;20513;-77
2021/03/13 11:40:27;;;;;;;14.17;2.37;;;11.70;59.80;;;;;;5095427;28;20450;-73
2021/03/13 11:42:55;;;;;;;9.80;2.30;;;11.80;61.10;;;;;;5094796;28;20906;-72
2021/03/13 11:45:22;;;;;;;12.20;2.70;;;11.90;60.80;;;;;;5095126;28;20490;-72
2021/03/13 11:47:49;;;;;;;14.03;3.13;;;11.40;63.90;;;;;;5095009;28;20448;-71
2021/03/13 11:50:17;;;;;;;8.27;2.00;;;10.70;70.00;;;;;;5094997;28;20543;-71
2021/03/13 11:52:44;;;;;;;7.30;1.57;;;9.90;74.20;;;;;;5095085;28;20451;-71
2021/03/13 11:55:12;;;;;;;10.73;2.13;;;9.60;77.60;;;;;;5094831;28;20454;-71
2021/03/13 11:57:39;;;;;;;10.07;3.33;;;9.50;79.30;;;;;;5094810;28;20447;-71
2021/03/13 12:00:07;;;;;;;9.30;2.53;;;9.50;78.30;;;;;;5094898;28;20483;-71
2021/03/13 12:02:34;;;;;;;11.93;3.80;;;9.70;80.80;;;;;;5094820;28;20447;-71
2021/03/13 12:05:00;;;;;;;7.10;2.27;;;9.90;76.60;;;;;;5094591;28;20443;-72
2021/03/13 12:07:26;;;;;;;6.80;2.07;;;10.00;71.30;;;;;;5094721;28;20432;-72
2021/03/13 12:09:54;;;;;;;8.20;1.83;;;10.00;71.30;;;;;;5094299;28;20466;-72
2021/03/13 12:12:20;;;;;;;7.50;1.93;;;9.90;73.00;;;;;;5094590;28;20447;-72
2021/03/13 12:14:46;;;;;;;10.00;2.83;;;9.90;74.10;;;;;;5094506;28;20443;-73
2021/03/13 12:17:13;;;;;;;7.97;2.20;;;9.70;73.40;;;;;;5094451;28;20451;-73
2021/03/13 12:19:39;;;;;;;7.37;2.63;;;9.60;73.50;;;;;;5094335;28;20506;-73
2021/03/13 12:22:06;;;;;;;10.20;2.33;;;9.40;75.90;;;;;;5094425;28;20532;-73
2021/03/13 12:24:32;;;;;;;5.57;1.70;;;9.10;79.70;;;;;;5094336;28;20503;-72
2021/03/13 12:26:59;;;;;;;10.70;2.70;;;8.70;83.30;;;;;;5094046;28;20941;-73
2021/03/13 12:29:25;;;;;;;6.87;2.60;;;8.60;85.40;;;;;;5094165;28;20473;-72
2021/03/13 12:31:52;;;;;;;5.73;1.60;;;8.70;84.20;;;;;;5094264;28;20424;-73
2021/03/13 12:34:18;;;;;;;6.60;1.63;;;8.70;82.30;;;;;;5093890;28;20443;-72
2021/03/13 12:36:45;;;;;;;5.67;2.17;;;8.70;83.00;;;;;;5094145;28;20448;-73
2021/03/13 12:39:11;;;;;;;7.30;1.27;;;8.60;83.80;;;;;;5094023;28;20482;-75
2021/03/13 12:41:37;;;;;;;10.73;2.00;;;8.60;85.30;;;;;;5094634;28;20424;-72
2021/03/13 12:44:05;;;;;;;9.40;1.90;;;8.60;84.70;;;;;;5094014;28;20444;-73
2021/03/13 12:46:31;;;;;;;5.27;1.80;;;8.70;84.20;;;;;;5093417;28;20518;-72
2021/03/13 12:48:58;;;;;;;9.20;2.00;;;9.10;81.30;;;;;;5093463;28;20875;-73
2021/03/13 12:51:24;;;;;;;12.00;3.10;;;9.90;79.50;;;;;;5093916;28;20497;-73
2021/03/13 12:53:51;;;;;;;7.47;1.83;;;10.80;73.70;;;;;;5094163;28;20440;-73
2021/03/13 12:56:17;;;;;;;9.10;2.20;;;11.40;70.70;;;;;;5093543;28;20930;-73
2021/03/13 12:58:44;;;;;;;10.77;2.67;;;11.50;67.20;;;;;;5093654;28;20877;-74
2021/03/13 13:01:11;;;;;;;11.67;3.30;;;10.90;69.50;;;;;;5093776;28;20444;-73
2021/03/13 13:03:39;;;;;;;8.60;2.13;;;10.40;71.20;;;;;;5093759;28;20444;-73
2021/03/13 13:06:06;;;;;;;5.20;1.93;;;10.00;73.50;;;;;;5093533;28;20505;-73